sensor_id;sensor_type;location;lat;lon;timestamp;P1;durP1;ratioP1;P2;durP2;ratioP2
56045;SDS011;41913;51.030;3.706;2024-01-10T00:00:00;3.22;;;3.03;;
56045;SDS011;41913;51.030;3.706;2024-01-10T00:02:26;5.68;;;3.10;;
56045;SDS011;41913;51.030;3.706;2024-01-10T00:04:52;2.85;;;2.65;;
56045;SDS011;41913;51.030;3.706;2024-01-10T00:07:18;3.38;;;3.08;;
56045;SDS011;41913;51.030;3.706;2024-01-10T00:09:43;3.10;;;2.90;;
56045;SDS011;41913;51.030;3.706;2024-01-10T00:12:11;3.58;;;3.28;;
56045;SDS011;41913;51.030;3.706;2024-01-10T00:14:37;3.42;;;3.08;;
56045;SDS011;41913;51.030;3.706;2024-01-10T00:17:02;3.45;;;3.25;;
56045;SDS011;41913;51.030;3.706;2024-01-10T00:19:28;3.47;;;2.50;;
56045;SDS011;41913;51.030;3.706;2024-01-10T00:21:55;3.75;;;3.33;;
56045;SDS011;41913;51.030;3.706;2024-01-10T00:24:21;3.92;;;3.60;;
56045;SDS011;41913;51.030;3.706;2024-01-10T00:26:47;3.67;;;3.38;;
56045;SDS011;41913;51.030;3.706;2024-01-10T00:29:12;3.30;;;3.05;;
56045;SDS011;41913;51.030;3.706;2024-01-10T00:31:38;4.05;;;3.75;;
56045;SDS011;41913;51.030;3.706;2024-01-10T00:34:05;3.38;;;3.17;;
56045;SDS011;41913;51.030;3.706;2024-01-10T00:36:31;3.97;;;3.67;;
56045;SDS011;41913;51.030;3.706;2024-01-10T00:38:58;3.95;;;3.60;;
56045;SDS011;41913;51.030;3.706;2024-01-10T00:41:23;3.72;;;3.50;;
56045;SDS011;41913;51.030;3.706;2024-01-10T00:43:49;4.22;;;3.92;;
56045;SDS011;41913;51.030;3.706;2024-01-10T00:46:16;3.97;;;3.63;;
56045;SDS011;41913;51.030;3.706;2024-01-10T00:48:41;4.07;;;3.78;;
56045;SDS011;41913;51.030;3.706;2024-01-10T00:51:07;4.15;;;3.85;;
56045;SDS011;41913;51.030;3.706;2024-01-10T00:53:37;3.63;;;3.35;;
56045;SDS011;41913;51.030;3.706;2024-01-10T00:56:07;4.50;;;4.00;;
56045;SDS011;41913;51.030;3.706;2024-01-10T00:58:33;4.20;;;3.80;;
56045;SDS011;41913;51.030;3.706;2024-01-10T01:00:59;4.25;;;4.00;;
56045;SDS011;41913;51.030;3.706;2024-01-10T01:03:24;4.00;;;3.70;;
56045;SDS011;41913;51.030;3.706;2024-01-10T01:05:50;4.10;;;3.80;;
56045;SDS011;41913;51.030;3.706;2024-01-10T01:08:16;4.93;;;4.47;;
56045;SDS011;41913;51.030;3.706;2024-01-10T01:10:41;4.10;;;3.75;;
56045;SDS011;41913;51.030;3.706;2024-01-10T01:13:07;4.18;;;3.88;;
56045;SDS011;41913;51.030;3.706;2024-01-10T01:15:33;4.25;;;3.95;;
56045;SDS011;41913;51.030;3.706;2024-01-10T01:17:59;4.05;;;3.75;;
56045;SDS011;41913;51.030;3.706;2024-01-10T01:20:24;5.47;;;3.90;;
56045;SDS011;41913;51.030;3.706;2024-01-10T01:22:50;4.05;;;3.75;;
56045;SDS011;41913;51.030;3.706;2024-01-10T01:25:16;3.90;;;3.60;;
56045;SDS011;41913;51.030;3.706;2024-01-10T01:27:42;4.75;;;4.35;;
56045;SDS011;41913;51.030;3.706;2024-01-10T01:30:08;4.40;;;4.00;;
56045;SDS011;41913;51.030;3.706;2024-01-10T01:32:34;4.35;;;4.03;;
56045;SDS011;41913;51.030;3.706;2024-01-10T01:34:59;4.32;;;3.97;;
56045;SDS011;41913;51.030;3.706;2024-01-10T01:37:25;4.20;;;3.90;;
56045;SDS011;41913;51.030;3.706;2024-01-10T01:39:51;4.25;;;3.90;;
56045;SDS011;41913;51.030;3.706;2024-01-10T01:42:16;3.88;;;3.58;;
56045;SDS011;41913;51.030;3.706;2024-01-10T01:44:42;4.57;;;4.20;;
56045;SDS011;41913;51.030;3.706;2024-01-10T01:47:08;3.92;;;3.60;;
56045;SDS011;41913;51.030;3.706;2024-01-10T01:49:34;4.85;;;3.58;;
56045;SDS011;41913;51.030;3.706;2024-01-10T01:52:00;4.22;;;3.83;;
56045;SDS011;41913;51.030;3.706;2024-01-10T01:54:26;5.15;;;4.78;;
56045;SDS011;41913;51.030;3.706;2024-01-10T01:56:52;4.57;;;4.05;;
56045;SDS011;41913;51.030;3.706;2024-01-10T01:59:18;3.65;;;3.35;;
56045;SDS011;41913;51.030;3.706;2024-01-10T02:01:45;5.35;;;4.13;;
56045;SDS011;41913;51.030;3.706;2024-01-10T02:04:11;3.53;;;3.30;;
56045;SDS011;41913;51.030;3.706;2024-01-10T02:06:37;3.42;;;3.17;;
56045;SDS011;41913;51.030;3.706;2024-01-10T02:09:03;4.50;;;4.15;;
56045;SDS011;41913;51.030;3.706;2024-01-10T02:11:29;3.30;;;3.10;;
56045;SDS011;41913;51.030;3.706;2024-01-10T02:13:57;3.92;;;3.63;;
56045;SDS011;41913;51.030;3.706;2024-01-10T02:16:23;4.00;;;3.53;;
56045;SDS011;41913;51.030;3.706;2024-01-10T02:18:49;3.92;;;3.60;;
56045;SDS011;41913;51.030;3.706;2024-01-10T02:21:16;3.63;;;3.33;;
56045;SDS011;41913;51.030;3.706;2024-01-10T02:23:45;3.38;;;3.17;;
56045;SDS011;41913;51.030;3.706;2024-01-10T02:26:11;3.40;;;3.20;;
56045;SDS011;41913;51.030;3.706;2024-01-10T02:28:37;3.58;;;3.33;;
56045;SDS011;41913;51.030;3.706;2024-01-10T02:31:02;4.13;;;3.78;;
56045;SDS011;41913;51.030;3.706;2024-01-10T02:33:28;3.70;;;3.30;;
56045;SDS011;41913;51.030;3.706;2024-01-10T02:35:54;4.03;;;3.67;;
56045;SDS011;41913;51.030;3.706;2024-01-10T02:38:20;4.10;;;3.28;;
56045;SDS011;41913;51.030;3.706;2024-01-10T02:40:48;3.60;;;3.30;;
56045;SDS011;41913;51.030;3.706;2024-01-10T02:43:14;3.67;;;3.38;;
56045;SDS011;41913;51.030;3.706;2024-01-10T02:45:40;6.30;;;3.15;;
56045;SDS011;41913;51.030;3.706;2024-01-10T02:48:06;3.40;;;3.13;;
56045;SDS011;41913;51.030;3.706;2024-01-10T02:50:31;3.88;;;3.58;;
56045;SDS011;41913;51.030;3.706;2024-01-10T02:52:57;3.20;;;3.00;;
56045;SDS011;41913;51.030;3.706;2024-01-10T02:55:23;3.30;;;3.00;;
56045;SDS011;41913;51.030;3.706;2024-01-10T02:57:49;3.47;;;3.28;;
56045;SDS011;41913;51.030;3.706;2024-01-10T03:00:14;3.85;;;3.47;;
56045;SDS011;41913;51.030;3.706;2024-01-10T03:02:40;3.63;;;3.22;;
56045;SDS011;41913;51.030;3.706;2024-01-10T03:05:06;3.53;;;3.22;;
56045;SDS011;41913;51.030;3.706;2024-01-10T03:07:32;3.60;;;3.30;;
56045;SDS011;41913;51.030;3.706;2024-01-10T03:09:58;3.05;;;2.85;;
56045;SDS011;41913;51.030;3.706;2024-01-10T03:12:24;3.97;;;3.60;;
56045;SDS011;41913;51.030;3.706;2024-01-10T03:14:49;3.72;;;3.42;;
56045;SDS011;41913;51.030;3.706;2024-01-10T03:17:15;3.58;;;3.35;;
56045;SDS011;41913;51.030;3.706;2024-01-10T03:19:41;3.47;;;3.10;;
56045;SDS011;41913;51.030;3.706;2024-01-10T03:22:09;4.05;;;3.40;;
56045;SDS011;41913;51.030;3.706;2024-01-10T03:24:38;3.17;;;2.88;;
56045;SDS011;41913;51.030;3.706;2024-01-10T03:27:04;3.35;;;3.10;;
56045;SDS011;41913;51.030;3.706;2024-01-10T03:29:30;3.13;;;2.92;;
56045;SDS011;41913;51.030;3.706;2024-01-10T03:31:56;2.92;;;2.70;;
56045;SDS011;41913;51.030;3.706;2024-01-10T03:34:21;3.08;;;2.88;;
56045;SDS011;41913;51.030;3.706;2024-01-10T03:36:47;3.15;;;2.95;;
56045;SDS011;41913;51.030;3.706;2024-01-10T03:39:13;3.85;;;3.45;;
56045;SDS011;41913;51.030;3.706;2024-01-10T03:41:38;3.17;;;2.97;;
56045;SDS011;41913;51.030;3.706;2024-01-10T03:44:04;3.45;;;3.05;;
56045;SDS011;41913;51.030;3.706;2024-01-10T03:46:30;3.05;;;2.85;;
56045;SDS011;41913;51.030;3.706;2024-01-10T03:48:56;3.08;;;2.80;;
56045;SDS011;41913;51.030;3.706;2024-01-10T03:51:22;3.00;;;2.80;;
56045;SDS011;41913;51.030;3.706;2024-01-10T03:53:48;2.97;;;2.78;;
56045;SDS011;41913;51.030;3.706;2024-01-10T03:56:14;3.25;;;3.03;;
56045;SDS011;41913;51.030;3.706;2024-01-10T03:58:40;3.38;;;2.90;;
56045;SDS011;41913;51.030;3.706;2024-01-10T04:01:06;3.40;;;3.15;;
56045;SDS011;41913;51.030;3.706;2024-01-10T04:03:33;3.03;;;2.83;;
56045;SDS011;41913;51.030;3.706;2024-01-10T04:06:00;3.25;;;3.00;;
56045;SDS011;41913;51.030;3.706;2024-01-10T04:08:26;2.75;;;2.55;;
56045;SDS011;41913;51.030;3.706;2024-01-10T04:10:51;3.40;;;3.10;;
56045;SDS011;41913;51.030;3.706;2024-01-10T04:13:17;2.85;;;2.72;;
56045;SDS011;41913;51.030;3.706;2024-01-10T04:15:43;2.83;;;2.63;;
56045;SDS011;41913;51.030;3.706;2024-01-10T04:18:09;3.42;;;3.13;;
56045;SDS011;41913;51.030;3.706;2024-01-10T04:20:35;3.00;;;2.80;;
56045;SDS011;41913;51.030;3.706;2024-01-10T04:23:00;3.20;;;2.90;;
56045;SDS011;41913;51.030;3.706;2024-01-10T04:25:26;3.25;;;3.05;;
56045;SDS011;41913;51.030;3.706;2024-01-10T04:27:52;4.00;;;3.60;;
56045;SDS011;41913;51.030;3.706;2024-01-10T04:30:17;3.28;;;3.08;;
56045;SDS011;41913;51.030;3.706;2024-01-10T04:32:43;2.42;;;2.33;;
56045;SDS011;41913;51.030;3.706;2024-01-10T04:35:09;2.63;;;2.45;;
56045;SDS011;41913;51.030;3.706;2024-01-10T04:37:35;4.68;;;2.90;;
56045;SDS011;41913;51.030;3.706;2024-01-10T04:40:01;4.05;;;2.75;;
56045;SDS011;41913;51.030;3.706;2024-01-10T04:42:27;3.00;;;2.80;;
56045;SDS011;41913;51.030;3.706;2024-01-10T04:44:52;2.80;;;2.60;;
56045;SDS011;41913;51.030;3.706;2024-01-10T04:47:19;2.97;;;2.78;;
56045;SDS011;41913;51.030;3.706;2024-01-10T04:49:45;3.03;;;2.90;;
56045;SDS011;41913;51.030;3.706;2024-01-10T04:52:11;3.10;;;2.90;;
56045;SDS011;41913;51.030;3.706;2024-01-10T04:54:37;3.78;;;2.58;;
56045;SDS011;41913;51.030;3.706;2024-01-10T04:57:03;3.00;;;2.80;;
56045;SDS011;41913;51.030;3.706;2024-01-10T04:59:29;3.42;;;3.10;;
56045;SDS011;41913;51.030;3.706;2024-01-10T05:01:56;3.03;;;2.83;;
56045;SDS011;41913;51.030;3.706;2024-01-10T05:04:22;2.80;;;2.70;;
56045;SDS011;41913;51.030;3.706;2024-01-10T05:06:47;3.65;;;3.38;;
56045;SDS011;41913;51.030;3.706;2024-01-10T05:09:13;3.13;;;2.95;;
56045;SDS011;41913;51.030;3.706;2024-01-10T05:11:40;3.08;;;2.88;;
56045;SDS011;41913;51.030;3.706;2024-01-10T05:14:06;3.47;;;2.72;;
56045;SDS011;41913;51.030;3.706;2024-01-10T05:16:31;2.65;;;2.53;;
56045;SDS011;41913;51.030;3.706;2024-01-10T05:19:00;2.78;;;2.58;;
56045;SDS011;41913;51.030;3.706;2024-01-10T05:21:28;3.45;;;3.25;;
56045;SDS011;41913;51.030;3.706;2024-01-10T05:23:55;2.88;;;2.70;;
56045;SDS011;41913;51.030;3.706;2024-01-10T05:26:21;3.20;;;2.90;;
56045;SDS011;41913;51.030;3.706;2024-01-10T05:28:47;3.35;;;3.08;;
56045;SDS011;41913;51.030;3.706;2024-01-10T05:31:13;3.08;;;2.88;;
56045;SDS011;41913;51.030;3.706;2024-01-10T05:33:38;3.05;;;2.85;;
56045;SDS011;41913;51.030;3.706;2024-01-10T05:36:05;2.60;;;2.50;;
56045;SDS011;41913;51.030;3.706;2024-01-10T05:38:31;3.13;;;2.92;;
56045;SDS011;41913;51.030;3.706;2024-01-10T05:40:57;2.92;;;2.72;;
56045;SDS011;41913;51.030;3.706;2024-01-10T05:43:23;4.05;;;2.85;;
56045;SDS011;41913;51.030;3.706;2024-01-10T05:45:49;2.70;;;2.50;;
56045;SDS011;41913;51.030;3.706;2024-01-10T05:48:15;2.70;;;2.50;;
56045;SDS011;41913;51.030;3.706;2024-01-10T05:50:42;3.50;;;2.85;;
56045;SDS011;41913;51.030;3.706;2024-01-10T05:53:08;3.05;;;2.85;;
56045;SDS011;41913;51.030;3.706;2024-01-10T05:55:35;2.78;;;2.58;;
56045;SDS011;41913;51.030;3.706;2024-01-10T05:58:01;2.75;;;2.55;;
56045;SDS011;41913;51.030;3.706;2024-01-10T06:00:27;2.42;;;2.22;;
56045;SDS011;41913;51.030;3.706;2024-01-10T06:02:53;2.42;;;2.22;;
56045;SDS011;41913;51.030;3.706;2024-01-10T06:05:19;3.28;;;3.00;;
56045;SDS011;41913;51.030;3.706;2024-01-10T06:07:45;2.85;;;2.30;;
56045;SDS011;41913;51.030;3.706;2024-01-10T06:10:10;2.47;;;2.38;;
56045;SDS011;41913;51.030;3.706;2024-01-10T06:12:36;2.83;;;2.63;;
56045;SDS011;41913;51.030;3.706;2024-01-10T06:15:03;2.90;;;2.70;;
56045;SDS011;41913;51.030;3.706;2024-01-10T06:17:29;3.15;;;2.70;;
56045;SDS011;41913;51.030;3.706;2024-01-10T06:19:56;3.70;;;2.65;;
56045;SDS011;41913;51.030;3.706;2024-01-10T06:22:25;2.78;;;2.47;;
56045;SDS011;41913;51.030;3.706;2024-01-10T06:24:51;3.17;;;2.88;;
56045;SDS011;41913;51.030;3.706;2024-01-10T06:27:17;2.67;;;2.40;;
56045;SDS011;41913;51.030;3.706;2024-01-10T06:29:45;8.38;;;2.83;;
56045;SDS011;41913;51.030;3.706;2024-01-10T06:32:11;2.90;;;2.70;;
56045;SDS011;41913;51.030;3.706;2024-01-10T06:34:37;6.28;;;3.10;;
56045;SDS011;41913;51.030;3.706;2024-01-10T06:37:03;5.05;;;3.58;;
56045;SDS011;41913;51.030;3.706;2024-01-10T06:39:29;15.00;;;3.83;;
56045;SDS011;41913;51.030;3.706;2024-01-10T06:41:54;31.10;;;4.53;;
56045;SDS011;41913;51.030;3.706;2024-01-10T06:44:20;15.07;;;4.20;;
56045;SDS011;41913;51.030;3.706;2024-01-10T06:46:46;9.48;;;3.13;;
56045;SDS011;41913;51.030;3.706;2024-01-10T06:49:12;21.85;;;3.80;;
56045;SDS011;41913;51.030;3.706;2024-01-10T06:51:37;24.70;;;5.43;;
56045;SDS011;41913;51.030;3.706;2024-01-10T06:54:03;39.28;;;6.70;;
56045;SDS011;41913;51.030;3.706;2024-01-10T06:56:30;42.00;;;5.65;;
56045;SDS011;41913;51.030;3.706;2024-01-10T06:58:57;35.50;;;5.00;;
56045;SDS011;41913;51.030;3.706;2024-01-10T07:01:23;16.52;;;3.50;;
56045;SDS011;41913;51.030;3.706;2024-01-10T07:03:49;46.33;;;5.10;;
56045;SDS011;41913;51.030;3.706;2024-01-10T07:06:16;26.85;;;3.83;;
56045;SDS011;41913;51.030;3.706;2024-01-10T07:08:42;16.65;;;4.88;;
56045;SDS011;41913;51.030;3.706;2024-01-10T07:11:10;22.65;;;4.20;;
56045;SDS011;41913;51.030;3.706;2024-01-10T07:13:39;9.70;;;3.50;;
56045;SDS011;41913;51.030;3.706;2024-01-10T07:16:06;12.32;;;4.43;;
56045;SDS011;41913;51.030;3.706;2024-01-10T07:18:32;9.65;;;3.80;;
56045;SDS011;41913;51.030;3.706;2024-01-10T07:20:59;16.05;;;3.70;;
56045;SDS011;41913;51.030;3.706;2024-01-10T07:23:25;14.70;;;3.20;;
56045;SDS011;41913;51.030;3.706;2024-01-10T07:25:51;7.88;;;3.30;;
56045;SDS011;41913;51.030;3.706;2024-01-10T07:28:17;6.05;;;2.88;;
56045;SDS011;41913;51.030;3.706;2024-01-10T07:30:44;4.53;;;2.72;;
56045;SDS011;41913;51.030;3.706;2024-01-10T07:33:10;7.50;;;3.10;;
56045;SDS011;41913;51.030;3.706;2024-01-10T07:35:36;8.05;;;3.63;;
56045;SDS011;41913;51.030;3.706;2024-01-10T07:38:05;6.28;;;4.15;;
56045;SDS011;41913;51.030;3.706;2024-01-10T07:40:34;8.52;;;3.42;;
56045;SDS011;41913;51.030;3.706;2024-01-10T07:43:01;8.70;;;3.55;;
56045;SDS011;41913;51.030;3.706;2024-01-10T07:45:27;13.68;;;3.15;;
56045;SDS011;41913;51.030;3.706;2024-01-10T07:47:53;3.58;;;2.95;;
56045;SDS011;41913;51.030;3.706;2024-01-10T07:50:19;7.43;;;3.03;;
56045;SDS011;41913;51.030;3.706;2024-01-10T07:52:45;7.80;;;3.58;;
56045;SDS011;41913;51.030;3.706;2024-01-10T07:55:11;5.45;;;3.22;;
56045;SDS011;41913;51.030;3.706;2024-01-10T07:57:37;3.42;;;3.10;;
56045;SDS011;41913;51.030;3.706;2024-01-10T08:00:04;3.63;;;2.97;;
56045;SDS011;41913;51.030;3.706;2024-01-10T08:02:33;3.05;;;2.75;;
56045;SDS011;41913;51.030;3.706;2024-01-10T08:04:59;4.38;;;3.15;;
56045;SDS011;41913;51.030;3.706;2024-01-10T08:07:25;4.57;;;3.22;;
56045;SDS011;41913;51.030;3.706;2024-01-10T08:09:52;10.85;;;3.55;;
56045;SDS011;41913;51.030;3.706;2024-01-10T08:12:17;5.05;;;2.33;;
56045;SDS011;41913;51.030;3.706;2024-01-10T08:14:44;9.93;;;3.53;;
56045;SDS011;41913;51.030;3.706;2024-01-10T08:17:15;4.10;;;2.33;;
56045;SDS011;41913;51.030;3.706;2024-01-10T08:19:41;3.53;;;2.75;;
56045;SDS011;41913;51.030;3.706;2024-01-10T08:22:07;3.92;;;3.22;;
56045;SDS011;41913;51.030;3.706;2024-01-10T08:24:33;3.30;;;2.92;;
56045;SDS011;41913;51.030;3.706;2024-01-10T08:26:59;4.18;;;2.70;;
56045;SDS011;41913;51.030;3.706;2024-01-10T08:29:25;4.60;;;2.83;;
56045;SDS011;41913;51.030;3.706;2024-01-10T08:31:55;3.05;;;2.83;;
56045;SDS011;41913;51.030;3.706;2024-01-10T08:34:22;4.28;;;3.08;;
56045;SDS011;41913;51.030;3.706;2024-01-10T08:36:47;2.85;;;2.55;;
56045;SDS011;41913;51.030;3.706;2024-01-10T08:39:16;3.72;;;2.80;;
56045;SDS011;41913;51.030;3.706;2024-01-10T08:41:42;4.25;;;3.13;;
56045;SDS011;41913;51.030;3.706;2024-01-10T08:44:09;8.45;;;3.20;;
56045;SDS011;41913;51.030;3.706;2024-01-10T08:46:35;3.72;;;3.10;;
56045;SDS011;41913;51.030;3.706;2024-01-10T08:49:02;4.03;;;2.75;;
56045;SDS011;41913;51.030;3.706;2024-01-10T08:51:28;3.47;;;3.17;;
56045;SDS011;41913;51.030;3.706;2024-01-10T08:53:54;5.30;;;3.53;;
56045;SDS011;41913;51.030;3.706;2024-01-10T08:56:20;3.00;;;2.70;;
56045;SDS011;41913;51.030;3.706;2024-01-10T08:58:46;3.83;;;2.53;;
56045;SDS011;41913;51.030;3.706;2024-01-10T09:01:12;2.67;;;2.40;;
56045;SDS011;41913;51.030;3.706;2024-01-10T09:03:37;3.10;;;2.90;;
56045;SDS011;41913;51.030;3.706;2024-01-10T09:06:04;3.25;;;2.95;;
56045;SDS011;41913;51.030;3.706;2024-01-10T09:08:30;3.55;;;2.53;;
56045;SDS011;41913;51.030;3.706;2024-01-10T09:10:56;6.82;;;2.95;;
56045;SDS011;41913;51.030;3.706;2024-01-10T09:13:21;2.72;;;2.53;;
56045;SDS011;41913;51.030;3.706;2024-01-10T09:15:47;2.88;;;2.67;;
56045;SDS011;41913;51.030;3.706;2024-01-10T09:18:13;4.53;;;3.03;;
56045;SDS011;41913;51.030;3.706;2024-01-10T09:20:39;3.67;;;3.38;;
56045;SDS011;41913;51.030;3.706;2024-01-10T09:23:05;3.17;;;2.97;;
56045;SDS011;41913;51.030;3.706;2024-01-10T09:25:30;3.47;;;3.20;;
56045;SDS011;41913;51.030;3.706;2024-01-10T09:27:56;3.10;;;2.83;;
56045;SDS011;41913;51.030;3.706;2024-01-10T09:30:22;3.88;;;3.20;;
56045;SDS011;41913;51.030;3.706;2024-01-10T09:32:49;3.20;;;2.90;;
56045;SDS011;41913;51.030;3.706;2024-01-10T09:35:14;5.78;;;2.78;;
56045;SDS011;41913;51.030;3.706;2024-01-10T09:37:40;6.28;;;3.10;;
56045;SDS011;41913;51.030;3.706;2024-01-10T09:40:06;4.90;;;2.80;;
56045;SDS011;41913;51.030;3.706;2024-01-10T09:42:33;5.45;;;3.22;;
56045;SDS011;41913;51.030;3.706;2024-01-10T09:45:01;2.92;;;2.75;;
56045;SDS011;41913;51.030;3.706;2024-01-10T09:47:29;3.40;;;3.10;;
56045;SDS011;41913;51.030;3.706;2024-01-10T09:49:56;3.20;;;2.90;;
56045;SDS011;41913;51.030;3.706;2024-01-10T09:52:26;8.20;;;2.92;;
56045;SDS011;41913;51.030;3.706;2024-01-10T09:54:53;3.38;;;2.90;;
56045;SDS011;41913;51.030;3.706;2024-01-10T09:57:23;2.88;;;2.67;;
56045;SDS011;41913;51.030;3.706;2024-01-10T09:59:50;2.85;;;2.65;;
56045;SDS011;41913;51.030;3.706;2024-01-10T10:02:17;6.70;;;3.83;;
56045;SDS011;41913;51.030;3.706;2024-01-10T10:05:26;3.97;;;3.03;;
56045;SDS011;41913;51.030;3.706;2024-01-10T10:07:47;4.30;;;3.72;;
56045;SDS011;41913;51.030;3.706;2024-01-10T10:10:20;3.03;;;2.72;;
56045;SDS011;41913;51.030;3.706;2024-01-10T10:15:14;5.65;;;3.03;;
56045;SDS011;41913;51.030;3.706;2024-01-10T10:17:43;3.63;;;2.88;;
56045;SDS011;41913;51.030;3.706;2024-01-10T10:20:20;3.30;;;3.10;;
56045;SDS011;41913;51.030;3.706;2024-01-10T10:23:03;3.28;;;3.00;;
56045;SDS011;41913;51.030;3.706;2024-01-10T10:25:45;3.33;;;2.83;;
56045;SDS011;41913;51.030;3.706;2024-01-10T10:28:12;2.95;;;2.58;;
56045;SDS011;41913;51.030;3.706;2024-01-10T10:30:38;5.38;;;3.20;;
56045;SDS011;41913;51.030;3.706;2024-01-10T10:33:05;3.80;;;3.30;;
56045;SDS011;41913;51.030;3.706;2024-01-10T10:35:33;3.55;;;3.25;;
56045;SDS011;41913;51.030;3.706;2024-01-10T10:37:59;3.70;;;3.40;;
56045;SDS011;41913;51.030;3.706;2024-01-10T10:40:25;7.68;;;3.63;;
56045;SDS011;41913;51.030;3.706;2024-01-10T10:42:54;4.10;;;3.80;;
56045;SDS011;41913;51.030;3.706;2024-01-10T10:45:24;4.07;;;3.42;;
56045;SDS011;41913;51.030;3.706;2024-01-10T10:47:57;3.58;;;3.08;;
56045;SDS011;41913;51.030;3.706;2024-01-10T10:50:24;7.35;;;3.28;;
56045;SDS011;41913;51.030;3.706;2024-01-10T10:52:55;3.67;;;3.38;;
56045;SDS011;41913;51.030;3.706;2024-01-10T10:55:21;4.50;;;3.10;;
56045;SDS011;41913;51.030;3.706;2024-01-10T10:57:48;3.20;;;2.97;;
56045;SDS011;41913;51.030;3.706;2024-01-10T11:00:18;8.07;;;3.65;;
56045;SDS011;41913;51.030;3.706;2024-01-10T11:02:45;3.72;;;2.80;;
56045;SDS011;41913;51.030;3.706;2024-01-10T11:05:12;4.10;;;3.53;;
56045;SDS011;41913;51.030;3.706;2024-01-10T11:07:38;3.35;;;3.15;;
56045;SDS011;41913;51.030;3.706;2024-01-10T11:10:10;3.90;;;3.30;;
56045;SDS011;41913;51.030;3.706;2024-01-10T11:21:06;5.43;;;3.50;;
56045;SDS011;41913;51.030;3.706;2024-01-10T11:23:56;4.00;;;3.70;;
56045;SDS011;41913;51.030;3.706;2024-01-10T11:26:24;2.72;;;2.53;;
56045;SDS011;41913;51.030;3.706;2024-01-10T11:28:50;3.58;;;3.28;;
56045;SDS011;41913;51.030;3.706;2024-01-10T11:31:18;4.47;;;3.75;;
56045;SDS011;41913;51.030;3.706;2024-01-10T11:33:56;4.25;;;3.85;;
56045;SDS011;41913;51.030;3.706;2024-01-10T11:36:22;4.32;;;3.45;;
56045;SDS011;41913;51.030;3.706;2024-01-10T11:41:22;3.85;;;3.55;;
56045;SDS011;41913;51.030;3.706;2024-01-10T11:46:43;5.00;;;3.65;;
56045;SDS011;41913;51.030;3.706;2024-01-10T11:49:16;3.15;;;2.95;;
56045;SDS011;41913;51.030;3.706;2024-01-10T11:51:43;4.03;;;3.65;;
56045;SDS011;41913;51.030;3.706;2024-01-10T11:54:09;3.40;;;3.20;;
56045;SDS011;41913;51.030;3.706;2024-01-10T11:56:38;4.85;;;4.03;;
56045;SDS011;41913;51.030;3.706;2024-01-10T11:59:09;3.92;;;3.45;;
56045;SDS011;41913;51.030;3.706;2024-01-10T12:01:36;4.57;;;3.78;;
56045;SDS011;41913;51.030;3.706;2024-01-10T12:04:03;3.40;;;3.15;;
56045;SDS011;41913;51.030;3.706;2024-01-10T12:06:30;3.40;;;3.10;;
56045;SDS011;41913;51.030;3.706;2024-01-10T12:08:57;4.10;;;3.70;;
56045;SDS011;41913;51.030;3.706;2024-01-10T12:11:24;4.32;;;3.22;;
56045;SDS011;41913;51.030;3.706;2024-01-10T12:13:50;3.45;;;3.15;;
56045;SDS011;41913;51.030;3.706;2024-01-10T12:16:16;3.53;;;3.22;;
56045;SDS011;41913;51.030;3.706;2024-01-10T12:18:43;3.65;;;3.35;;
56045;SDS011;41913;51.030;3.706;2024-01-10T12:21:09;3.70;;;3.45;;
56045;SDS011;41913;51.030;3.706;2024-01-10T12:23:36;3.80;;;3.50;;
56045;SDS011;41913;51.030;3.706;2024-01-10T12:26:03;3.80;;;3.40;;
56045;SDS011;41913;51.030;3.706;2024-01-10T12:28:33;4.13;;;3.72;;
56045;SDS011;41913;51.030;3.706;2024-01-10T12:31:02;4.75;;;3.97;;
56045;SDS011;41913;51.030;3.706;2024-01-10T12:33:28;4.20;;;3.80;;
56045;SDS011;41913;51.030;3.706;2024-01-10T12:36:06;3.55;;;3.25;;
56045;SDS011;41913;51.030;3.706;2024-01-10T12:38:33;4.03;;;3.67;;
56045;SDS011;41913;51.030;3.706;2024-01-10T12:40:59;3.38;;;3.17;;
56045;SDS011;41913;51.030;3.706;2024-01-10T12:43:26;3.70;;;3.35;;
56045;SDS011;41913;51.030;3.706;2024-01-10T12:46:08;3.50;;;3.20;;
56045;SDS011;41913;51.030;3.706;2024-01-10T12:48:39;6.97;;;4.03;;
56045;SDS011;41913;51.030;3.706;2024-01-10T12:51:09;7.45;;;3.67;;
56045;SDS011;41913;51.030;3.706;2024-01-10T12:53:40;4.13;;;3.75;;
56045;SDS011;41913;51.030;3.706;2024-01-10T12:56:07;5.28;;;4.30;;
56045;SDS011;41913;51.030;3.706;2024-01-10T12:58:34;5.25;;;4.55;;
56045;SDS011;41913;51.030;3.706;2024-01-10T13:01:04;6.60;;;4.88;;
56045;SDS011;41913;51.030;3.706;2024-01-10T13:03:30;7.05;;;4.25;;
56045;SDS011;41913;51.030;3.706;2024-01-10T13:05:58;7.32;;;4.43;;
56045;SDS011;41913;51.030;3.706;2024-01-10T13:08:23;6.35;;;5.32;;
56045;SDS011;41913;51.030;3.706;2024-01-10T13:10:49;11.55;;;5.20;;
56045;SDS011;41913;51.030;3.706;2024-01-10T13:13:15;5.53;;;4.55;;
56045;SDS011;41913;51.030;3.706;2024-01-10T13:15:45;5.97;;;5.10;;
56045;SDS011;41913;51.030;3.706;2024-01-10T13:18:11;11.57;;;5.03;;
56045;SDS011;41913;51.030;3.706;2024-01-10T13:20:37;6.75;;;5.30;;
56045;SDS011;41913;51.030;3.706;2024-01-10T13:23:03;6.43;;;4.72;;
56045;SDS011;41913;51.030;3.706;2024-01-10T13:25:29;5.93;;;4.82;;
56045;SDS011;41913;51.030;3.706;2024-01-10T13:27:55;6.30;;;5.00;;
56045;SDS011;41913;51.030;3.706;2024-01-10T13:30:22;5.68;;;4.68;;
56045;SDS011;41913;51.030;3.706;2024-01-10T13:32:48;6.05;;;4.95;;
56045;SDS011;41913;51.030;3.706;2024-01-10T13:35:14;6.38;;;5.00;;
56045;SDS011;41913;51.030;3.706;2024-01-10T13:37:44;5.22;;;4.68;;
56045;SDS011;41913;51.030;3.706;2024-01-10T13:40:11;7.30;;;5.13;;
56045;SDS011;41913;51.030;3.706;2024-01-10T13:42:40;8.18;;;5.07;;
56045;SDS011;41913;51.030;3.706;2024-01-10T13:45:07;8.30;;;4.88;;
56045;SDS011;41913;51.030;3.706;2024-01-10T13:47:37;6.88;;;4.55;;
56045;SDS011;41913;51.030;3.706;2024-01-10T13:50:04;7.18;;;5.60;;
56045;SDS011;41913;51.030;3.706;2024-01-10T13:52:31;7.50;;;5.88;;
56045;SDS011;41913;51.030;3.706;2024-01-10T13:55:00;8.32;;;6.38;;
56045;SDS011;41913;51.030;3.706;2024-01-10T13:57:27;6.78;;;6.07;;
56045;SDS011;41913;51.030;3.706;2024-01-10T13:59:53;8.80;;;5.20;;
56045;SDS011;41913;51.030;3.706;2024-01-10T14:02:24;7.75;;;6.10;;
56045;SDS011;41913;51.030;3.706;2024-01-10T14:04:51;6.97;;;6.05;;
56045;SDS011;41913;51.030;3.706;2024-01-10T14:07:19;10.38;;;5.93;;
56045;SDS011;41913;51.030;3.706;2024-01-10T14:09:45;10.68;;;5.85;;
56045;SDS011;41913;51.030;3.706;2024-01-10T14:12:11;9.52;;;5.60;;
56045;SDS011;41913;51.030;3.706;2024-01-10T14:14:38;6.95;;;5.28;;
56045;SDS011;41913;51.030;3.706;2024-01-10T14:17:04;8.63;;;5.80;;
56045;SDS011;41913;51.030;3.706;2024-01-10T14:19:33;9.68;;;5.65;;
56045;SDS011;41913;51.030;3.706;2024-01-10T14:21:59;6.10;;;5.28;;
56045;SDS011;41913;51.030;3.706;2024-01-10T14:24:24;10.95;;;6.32;;
56045;SDS011;41913;51.030;3.706;2024-01-10T14:26:50;8.73;;;5.80;;
56045;SDS011;41913;51.030;3.706;2024-01-10T14:29:16;11.00;;;5.70;;
56045;SDS011;41913;51.030;3.706;2024-01-10T14:31:42;10.80;;;6.10;;
56045;SDS011;41913;51.030;3.706;2024-01-10T14:34:08;9.52;;;6.28;;
56045;SDS011;41913;51.030;3.706;2024-01-10T14:36:34;9.13;;;6.38;;
56045;SDS011;41913;51.030;3.706;2024-01-10T14:39:02;7.20;;;5.95;;
56045;SDS011;41913;51.030;3.706;2024-01-10T14:41:30;7.63;;;5.07;;
56045;SDS011;41913;51.030;3.706;2024-01-10T14:43:55;11.68;;;6.32;;
56045;SDS011;41913;51.030;3.706;2024-01-10T14:46:22;8.93;;;6.03;;
56045;SDS011;41913;51.030;3.706;2024-01-10T14:48:47;6.97;;;5.47;;
56045;SDS011;41913;51.030;3.706;2024-01-10T14:51:14;8.45;;;5.65;;
56045;SDS011;41913;51.030;3.706;2024-01-10T14:53:40;7.50;;;5.93;;
56045;SDS011;41913;51.030;3.706;2024-01-10T14:56:06;9.32;;;6.65;;
56045;SDS011;41913;51.030;3.706;2024-01-10T14:58:32;8.05;;;6.38;;